Time;durP1;ratioP1;P1;durP2;ratioP2;P2;SDS_P1;SDS_P2;PMS_P1;PMS_P2;Temp;Humidity;BMP_temperature;BMP_pressure;BME280_temperature;BME280_humidity;BME280_pressure;Samples;Min_cycle;Max_cycle;Signal;HPM_P1;HPM_P2
2023/09/10 00:00:23;;;;;;;;;;;;;;;24.59;38.76;101730.31;5075298;28;20455;-84
2023/09/10 00:02:48;;;;;;;;;;;;;;;24.57;38.70;101729.03;5076651;28;20272;-84
2023/09/10 00:05:14;;;;;;;;;;;;;;;24.54;38.86;101729.66;5070386;28;20381;-84
2023/09/10 00:07:39;;;;;;;;;;;;;;;24.49;38.86;101732.56;5074419;28;20489;-84
2023/09/10 00:10:05;;;;;;;;;;;;;;;24.45;38.82;101728.84;5076365;28;19958;-84
2023/09/10 00:12:32;;;;;;;;;;;;;;;24.43;38.76;101731.13;5072686;28;19969;-84
2023/09/10 00:14:58;;;;;;;;;;;;;;;24.40;38.50;101727.84;5073430;28;19962;-84
2023/09/10 00:17:23;;;;;;;;;;;;;;;24.40;38.80;101727.84;5077257;28;19916;-85
2023/09/10 00:19:48;;;;;;;;;;;;;;;24.37;38.72;101727.69;5080164;28;19927;-84
2023/09/10 00:22:14;;;;;;;;;;;;;;;24.32;38.83;101733.31;5074226;28;19920;-84
2023/09/10 00:24:39;;;;;;;;;;;;;;;24.28;38.99;101724.91;5075800;28;19946;-84
2023/09/10 00:27:04;;;;;;;;;;;;;;;24.27;38.85;101727.97;5072399;28;20518;-84
2023/09/10 00:29:30;;;;;;;;;;;;;;;24.23;38.78;101727.75;5069322;28;19930;-84
2023/09/10 00:31:55;;;;;;;;;;;;;;;24.23;38.83;101724.22;5074778;28;20190;-83
2023/09/10 00:34:20;;;;;;;;;;;;;;;24.21;38.86;101724.53;5074024;28;19985;-84
2023/09/10 00:36:46;;;;;;;;;;;;;;;24.17;38.74;101725.50;5066444;28;19920;-84
2023/09/10 00:39:11;;;;;;;;;;;;;;;24.12;38.92;101720.97;5066914;28;20288;-84
2023/09/10 00:41:36;;;;;;;;;;;;;;;24.07;38.96;101729.34;5067228;28;19935;-84
2023/09/10 00:44:02;;;;;;;;;;;;;;;24.03;38.81;101731.06;5077207;28;20312;-85
2023/09/10 00:46:28;;;;;;;;;;;;;;;24.00;39.13;101723.50;5073437;28;20396;-84
2023/09/10 00:48:53;;;;;;;;;;;;;;;23.98;39.00;101726.53;5074858;28;19921;-84
2023/09/10 00:51:19;;;;;;;;;;;;;;;23.94;38.92;101722.03;5078198;28;20081;-84
2023/09/10 00:53:44;;;;;;;;;;;;;;;23.90;39.02;101727.31;5073951;28;19928;-84
2023/09/10 00:56:11;;;;;;;;;;;;;;;23.87;38.90;101724.38;5068471;28;20662;-85
2023/09/10 00:58:36;;;;;;;;;;;;;;;23.81;39.21;101719.06;5078065;28;20395;-84
2023/09/10 01:01:03;;;;;;;;;;;;;;;23.78;39.11;101721.59;5077973;28;20239;-84
2023/09/10 01:03:29;;;;;;;;;;;;;;;23.74;39.19;101720.63;5077190;28;19947;-83
2023/09/10 01:05:54;;;;;;;;;;;;;;;23.68;39.36;101722.66;5078862;28;19916;-84
2023/09/10 01:08:19;;;;;;;;;;;;;;;23.62;39.27;101721.19;5078977;28;20326;-84
2023/09/10 01:10:47;;;;;;;;;;;;;;;23.56;39.53;101714.22;5076538;28;19986;-84
2023/09/10 01:13:42;;;;;;;;;;;;;;;23.53;39.21;101723.06;5075215;28;19920;-84
2023/09/10 01:16:11;;;;;;;;;;;;;;;23.49;39.40;101720.09;5048380;28;19947;-84
2023/09/10 01:18:45;;;;;;;;;;;;;;;23.47;39.55;101721.53;5075617;28;19969;-84
2023/09/10 01:21:29;;;;;;;;;;;;;;;23.44;39.62;101724.91;5076710;28;19924;-84
2023/09/10 01:24:02;;;;;;;;;;;;;;;23.42;39.41;101721.69;5077969;28;19920;-83
2023/09/10 01:26:28;;;;;;;;;;;;;;;23.40;39.31;101726.66;5072897;28;19947;-84
2023/09/10 01:28:53;;;;;;;;;;;;;;;23.38;39.40;101723.41;5076320;28;20363;-84
2023/09/10 01:31:18;;;;;;;;;;;;;;;23.36;39.47;101722.94;5075822;28;19924;-84
2023/09/10 01:34:03;;;;;;;;;;;;;;;23.33;39.63;101731.72;5076392;28;20046;-84
2023/09/10 01:36:38;;;;;;;;;;;;;;;23.26;39.59;101721.22;5074159;28;20337;-84
2023/09/10 01:39:09;;;;;;;;;;;;;;;23.20;39.48;101725.22;5071226;28;19927;-84
2023/09/10 01:41:35;;;;;;;;;;;;;;;23.15;39.69;101720.66;5069191;28;20007;-84
2023/09/10 01:44:01;;;;;;;;;;;;;;;23.12;39.54;101723.19;5074915;28;20138;-84
2023/09/10 01:46:27;;;;;;;;;;;;;;;23.09;39.59;101723.81;5071504;28;20012;-83
2023/09/10 01:48:53;;;;;;;;;;;;;;;23.07;39.62;101726.88;5073176;28;20375;-84
2023/09/10 01:51:19;;;;;;;;;;;;;;;23.05;39.80;101720.91;5066567;28;19924;-84
2023/09/10 01:53:44;;;;;;;;;;;;;;;23.03;39.50;101723.13;5069392;28;20027;-84
2023/09/10 01:56:09;;;;;;;;;;;;;;;23.02;39.37;101721.53;5070516;28;19916;-84
2023/09/10 01:58:35;;;;;;;;;;;;;;;23.00;39.27;101723.75;5072757;28;19916;-84
2023/09/10 02:01:00;;;;;;;;;;;;;;;22.99;39.44;101718.59;5070746;28;20324;-84
2023/09/10 02:03:25;;;;;;;;;;;;;;;22.95;39.55;101715.66;5068499;28;19928;-84
2023/09/10 02:05:50;;;;;;;;;;;;;;;22.88;39.57;101712.56;5075366;28;20022;-84
2023/09/10 02:08:16;;;;;;;;;;;;;;;22.85;39.72;101713.16;5074116;28;19923;-84
2023/09/10 02:10:41;;;;;;;;;;;;;;;22.81;39.73;101712.16;5074239;28;20017;-84
2023/09/10 02:13:06;;;;;;;;;;;;;;;22.77;39.47;101714.66;5066841;28;20058;-84
2023/09/10 02:15:32;;;;;;;;;;;;;;;22.73;39.92;101713.66;5068297;28;19920;-84
2023/09/10 02:17:57;;;;;;;;;;;;;;;22.68;39.62;101716.50;5072415;28;19920;-84
2023/09/10 02:20:22;;;;;;;;;;;;;;;22.64;40.13;101712.78;5075510;28;19923;-84
2023/09/10 02:22:48;;;;;;;;;;;;;;;22.59;39.87;101718.31;5069808;28;20373;-84
2023/09/10 02:25:13;;;;;;;;;;;;;;;22.54;40.03;101721.19;5065807;28;19928;-84
2023/09/10 02:27:38;;;;;;;;;;;;;;;22.49;40.09;101727.56;5068050;28;20048;-84
2023/09/10 02:30:04;;;;;;;;;;;;;;;22.49;39.98;101719.38;5077814;28;20477;-84
2023/09/10 02:32:31;;;;;;;;;;;;;;;22.51;40.07;101717.13;5074104;28;19932;-84
2023/09/10 02:34:56;;;;;;;;;;;;;;;22.51;39.79;101719.88;5073719;28;20054;-84
2023/09/10 02:37:21;;;;;;;;;;;;;;;22.48;39.72;101714.22;5070618;28;20018;-84
2023/09/10 02:39:46;;;;;;;;;;;;;;;22.46;39.92;101717.25;5079929;28;20247;-84
2023/09/10 02:42:12;;;;;;;;;;;;;;;22.42;39.96;101723.59;5074528;28;20036;-84
2023/09/10 02:44:37;;;;;;;;;;;;;;;22.36;40.18;101719.38;5079517;28;19976;-84
2023/09/10 02:47:03;;;;;;;;;;;;;;;22.29;40.22;101725.25;5079189;28;19923;-84
2023/09/10 02:49:28;;;;;;;;;;;;;;;22.23;40.14;101720.97;5077904;28;19916;-84
2023/09/10 02:51:54;;;;;;;;;;;;;;;22.19;40.12;101720.78;5078642;28;19916;-84
2023/09/10 02:54:19;;;;;;;;;;;;;;;22.19;40.08;101728.16;5079413;28;20376;-84
2023/09/10 02:56:44;;;;;;;;;;;;;;;22.20;40.14;101727.03;5076867;28;19921;-84
2023/09/10 02:59:20;;;;;;;;;;;;;;;22.17;39.97;101728.47;5073960;28;19920;-84
2023/09/10 03:01:45;;;;;;;;;;;;;;;22.09;40.40;101728.38;5080436;28;19941;-84
2023/09/10 03:04:11;;;;;;;;;;;;;;;22.00;40.59;101737.19;5074812;28;19964;-84
2023/09/10 03:06:36;;;;;;;;;;;;;;;21.97;40.53;101732.34;5077255;28;19920;-84
2023/09/10 03:09:01;;;;;;;;;;;;;;;21.99;40.16;101724.66;5075533;28;20067;-84
2023/09/10 03:11:26;;;;;;;;;;;;;;;22.00;40.04;101729.00;5077604;28;19958;-84
2023/09/10 03:13:52;;;;;;;;;;;;;;;21.99;40.37;101726.59;5080600;28;19980;-84
2023/09/10 03:16:17;;;;;;;;;;;;;;;21.98;40.27;101727.69;5076324;28;20443;-83
2023/09/10 03:18:44;;;;;;;;;;;;;;;21.94;40.06;101724.78;5079259;28;19921;-84
2023/09/10 03:21:09;;;;;;;;;;;;;;;21.89;40.40;101729.50;5076898;28;20139;-84
2023/09/10 03:23:35;;;;;;;;;;;;;;;21.82;40.44;101727.16;5074249;28;20387;-84
2023/09/10 03:26:00;;;;;;;;;;;;;;;21.76;40.60;101724.84;5073858;28;20003;-84
2023/09/10 03:28:25;;;;;;;;;;;;;;;21.72;40.47;101719.16;5076836;28;19920;-84
2023/09/10 03:30:55;;;;;;;;;;;;;;;21.70;40.50;101726.81;5079247;28;20472;-84
2023/09/10 03:33:20;;;;;;;;;;;;;;;21.67;40.25;101720.06;5078337;28;19916;-84
2023/09/10 03:35:46;;;;;;;;;;;;;;;21.65;40.36;101730.47;5075800;28;19923;-84
2023/09/10 03:38:11;;;;;;;;;;;;;;;21.66;40.51;101725.81;5072924;28;19973;-84
2023/09/10 03:40:36;;;;;;;;;;;;;;;21.65;40.57;101721.47;5074768;28;19927;-84
2023/09/10 03:43:02;;;;;;;;;;;;;;;21.64;40.36;101711.66;5080452;28;20053;-84
2023/09/10 03:45:27;;;;;;;;;;;;;;;21.64;40.51;101717.13;5076961;28;20384;-84
2023/09/10 03:47:53;;;;;;;;;;;;;;;21.63;40.08;101715.50;5078198;28;19920;-84
2023/09/10 03:50:19;;;;;;;;;;;;;;;21.62;40.21;101716.59;5077887;28;19919;-84
2023/09/10 03:52:44;;;;;;;;;;;;;;;21.59;40.46;101719.94;5077986;28;19924;-84
2023/09/10 03:55:10;;;;;;;;;;;;;;;21.55;40.34;101711.56;5077602;28;19969;-84
2023/09/10 03:57:35;;;;;;;;;;;;;;;21.51;40.26;101709.69;5077242;28;19927;-84
2023/09/10 04:00:00;;;;;;;;;;;;;;;21.44;40.46;101710.09;5079823;28;19939;-84
2023/09/10 04:02:25;;;;;;;;;;;;;;;21.37;40.56;101706.94;5074682;28;19927;-84
2023/09/10 04:04:51;;;;;;;;;;;;;;;21.33;40.72;101712.16;5077662;28;19920;-84
2023/09/10 04:07:16;;;;;;;;;;;;;;;21.32;40.70;101712.47;5078007;28;19926;-84
2023/09/10 04:09:42;;;;;;;;;;;;;;;21.32;40.58;101715.19;5072010;28;20388;-84
2023/09/10 04:12:07;;;;;;;;;;;;;;;21.32;40.53;101717.91;5071432;28;20299;-84
2023/09/10 04:14:32;;;;;;;;;;;;;;;21.31;40.76;101711.66;5077401;28;19927;-85
2023/09/10 04:16:58;;;;;;;;;;;;;;;21.31;40.64;101713.56;5078220;28;19923;-84
2023/09/10 04:19:23;;;;;;;;;;;;;;;21.27;40.60;101707.91;5078123;28;19917;-84
2023/09/10 04:21:49;;;;;;;;;;;;;;;21.26;40.74;101710.94;5078706;28;20721;-84
2023/09/10 04:24:14;;;;;;;;;;;;;;;21.22;40.63;101718.06;5077846;28;19924;-84
2023/09/10 04:26:39;;;;;;;;;;;;;;;21.17;40.81;101716.19;5073077;28;19924;-85
2023/09/10 04:29:05;;;;;;;;;;;;;;;21.15;40.71;101723.84;5076840;28;19920;-84
2023/09/10 04:31:35;;;;;;;;;;;;;;;21.14;40.75;101724.97;5077606;28;19924;-85
2023/09/10 04:34:00;;;;;;;;;;;;;;;21.12;40.88;101713.56;5077434;28;19970;-84
2023/09/10 04:36:26;;;;;;;;;;;;;;;21.13;40.82;101724.16;5075519;28;20215;-85
2023/09/10 04:38:52;;;;;;;;;;;;;;;21.12;40.61;101724.44;5076784;28;19917;-85
2023/09/10 04:41:18;;;;;;;;;;;;;;;21.12;40.51;101727.19;5073525;28;19916;-84
2023/09/10 04:43:43;;;;;;;;;;;;;;;21.12;40.47;101724.44;5076982;28;19943;-85
2023/09/10 04:46:08;;;;;;;;;;;;;;;21.09;40.49;101722.31;5076898;28;19916;-84
2023/09/10 04:48:33;;;;;;;;;;;;;;;21.03;40.38;101726.25;5073056;28;20261;-85
2023/09/10 04:50:59;;;;;;;;;;;;;;;20.97;40.54;101730.94;5076961;28;20076;-85
2023/09/10 04:53:24;;;;;;;;;;;;;;;20.95;40.76;101721.44;5072807;28;19926;-85
2023/09/10 04:55:53;;;;;;;;;;;;;;;20.93;41.05;101734.53;5079422;28;20407;-85
2023/09/10 04:58:19;;;;;;;;;;;;;;;20.90;41.06;101738.66;5079652;28;20303;-85
2023/09/10 05:00:44;;;;;;;;;;;;;;;20.90;40.93;101733.22;5079009;28;19916;-85
2023/09/10 05:03:09;;;;;;;;;;;;;;;20.92;41.07;101735.66;5074001;28;19954;-84
2023/09/10 05:05:35;;;;;;;;;;;;;;;20.93;40.77;101734.53;5077540;28;19998;-85
2023/09/10 05:08:00;;;;;;;;;;;;;;;20.95;40.77;101738.59;5079285;28;19928;-85
2023/09/10 05:10:25;;;;;;;;;;;;;;;20.98;40.82;101745.34;5070170;28;20015;-85
2023/09/10 05:12:52;;;;;;;;;;;;;;;21.01;40.86;101745.59;5085682;28;20013;-85
2023/09/10 05:15:17;;;;;;;;;;;;;;;21.05;40.87;101745.81;5079515;28;19924;-84
2023/09/10 05:17:42;;;;;;;;;;;;;;;21.07;40.93;101738.16;5069534;28;20094;-84
2023/09/10 05:20:08;;;;;;;;;;;;;;;21.09;41.10;101738.69;5072380;27;20485;-85
2023/09/10 05:22:33;;;;;;;;;;;;;;;21.13;41.08;101745.16;5075516;28;20023;-84
2023/09/10 05:24:58;;;;;;;;;;;;;;;21.16;41.46;101743.75;5079201;28;19922;-84
2023/09/10 05:27:24;;;;;;;;;;;;;;;21.18;41.59;101742.34;5071898;28;19924;-84
2023/09/10 05:29:49;;;;;;;;;;;;;;;21.23;41.82;101745.00;5078514;28;20311;-84
2023/09/10 05:32:14;;;;;;;;;;;;;;;21.28;41.58;101750.41;5076648;28;19920;-84
2023/09/10 05:34:40;;;;;;;;;;;;;;;21.37;41.60;101756.81;5080084;28;21069;-84
2023/09/10 05:37:05;;;;;;;;;;;;;;;21.45;41.51;101755.34;5070934;28;19997;-85
2023/09/10 05:39:30;;;;;;;;;;;;;;;21.58;41.54;101748.31;5074233;28;19920;-84
2023/09/10 05:41:56;;;;;;;;;;;;;;;21.69;41.63;101753.28;5078880;28;20304;-84
2023/09/10 05:44:21;;;;;;;;;;;;;;;21.80;41.95;101753.13;5075583;28;19924;-84
2023/09/10 05:46:46;;;;;;;;;;;;;;;21.91;41.71;101749.13;5078994;28;19962;-84
2023/09/10 05:49:12;;;;;;;;;;;;;;;22.03;41.75;101744.78;5074979;28;19928;-84
2023/09/10 05:51:37;;;;;;;;;;;;;;;22.14;41.96;101750.09;5078038;28;19927;-85
2023/09/10 05:54:03;;;;;;;;;;;;;;;22.25;41.94;101755.03;5073190;28;19916;-84
2023/09/10 05:56:28;;;;;;;;;;;;;;;22.36;42.02;101747.47;5074441;28;19926;-84
2023/09/10 05:58:54;;;;;;;;;;;;;;;22.48;42.22;101752.44;5074431;28;19916;-84
2023/09/10 06:01:19;;;;;;;;;;;;;;;22.60;42.10;101753.53;5071394;28;19939;-84
2023/09/10 06:03:45;;;;;;;;;;;;;;;22.73;42.18;101762.84;5070473;28;20296;-84
2023/09/10 06:06:10;;;;;;;;;;;;;;;22.83;42.21;101759.94;5077714;28;19916;-84
2023/09/10 06:08:35;;;;;;;;;;;;;;;22.94;42.57;101752.31;5075501;28;19920;-84
2023/09/10 06:11:01;;;;;;;;;;;;;;;23.06;42.34;101759.97;5074682;28;19974;-85
2023/09/10 06:13:28;;;;;;;;;;;;;;;23.16;42.38;101760.56;5075154;28;19920;-83
2023/09/10 06:15:53;;;;;;;;;;;;;;;23.28;42.50;101761.94;5079624;28;19916;-84
2023/09/10 06:18:18;;;;;;;;;;;;;;;23.41;42.48;101767.34;5069868;28;19947;-84
2023/09/10 06:20:44;;;;;;;;;;;;;;;23.53;42.54;101764.06;5072219;28;19931;-84
2023/09/10 06:23:09;;;;;;;;;;;;;;;23.64;42.49;101759.97;5078583;28;19976;-84
2023/09/10 06:25:35;;;;;;;;;;;;;;;23.75;42.69;101760.56;5074580;28;20642;-84
2023/09/10 06:28:00;;;;;;;;;;;;;;;23.90;42.65;101760.16;5078246;28;19931;-84
2023/09/10 06:30:25;;;;;;;;;;;;;;;24.04;42.56;101758.13;5078909;28;19968;-85
2023/09/10 06:32:51;;;;;;;;;;;;;;;24.19;42.75;101756.91;5079113;28;20292;-85
2023/09/10 06:35:16;;;;;;;;;;;;;;;24.34;42.70;101753.78;5077774;28;20385;-84
2023/09/10 06:37:42;;;;;;;;;;;;;;;24.49;42.67;101749.81;5077288;28;20036;-85
2023/09/10 06:40:08;;;;;;;;;;;;;;;24.63;42.40;101753.25;5074209;28;20070;-85
2023/09/10 06:42:33;;;;;;;;;;;;;;;24.77;42.33;101755.81;5075427;28;19920;-85
2023/09/10 06:44:59;;;;;;;;;;;;;;;24.90;42.24;101762.31;5079239;28;19923;-84
2023/09/10 06:47:24;;;;;;;;;;;;;;;24.99;42.36;101755.75;5074080;28;20516;-83
2023/09/10 06:49:49;;;;;;;;;;;;;;;25.07;42.38;101750.59;5075983;28;19928;-84
2023/09/10 06:52:15;;;;;;;;;;;;;;;25.18;42.17;101749.97;5073447;28;19920;-85
2023/09/10 06:54:40;;;;;;;;;;;;;;;25.30;42.19;101749.28;5066302;28;20026;-84
2023/09/10 06:57:05;;;;;;;;;;;;;;;25.41;42.27;101753.31;5073193;28;19920;-85
2023/09/10 06:59:31;;;;;;;;;;;;;;;25.54;42.01;101746.88;5069540;28;19920;-84
2023/09/10 07:01:56;;;;;;;;;;;;;;;25.66;42.08;101751.66;5073020;28;19924;-84
2023/09/10 07:04:22;;;;;;;;;;;;;;;25.78;42.05;101756.53;5077115;28;19940;-84
2023/09/10 07:06:48;;;;;;;;;;;;;;;25.90;41.80;101751.19;5078772;28;20142;-85
2023/09/10 07:09:21;;;;;;;;;;;;;;;26.01;41.73;101751.63;5078975;28;19928;-85
2023/09/10 07:11:47;;;;;;;;;;;;;;;26.12;41.65;101752.88;5078367;28;19923;-85
2023/09/10 07:14:12;;;;;;;;;;;;;;;26.27;41.60;101759.78;5071067;28;19920;-85
2023/09/10 07:16:38;;;;;;;;;;;;;;;26.45;41.60;101755.84;5073209;28;19969;-84
2023/09/10 07:19:03;;;;;;;;;;;;;;;26.63;41.60;101757.34;5071623;28;20465;-84
2023/09/10 07:21:28;;;;;;;;;;;;;;;26.78;41.41;101758.72;5067695;28;19924;-84
2023/09/10 07:23:54;;;;;;;;;;;;;;;26.98;41.18;101763.44;5079945;28;19920;-84
2023/09/10 07:26:19;;;;;;;;;;;;;;;27.14;41.20;101754.63;5069333;28;19920;-85
2023/09/10 07:28:44;;;;;;;;;;;;;;;27.30;41.15;101759.16;5073288;28;19916;-84
2023/09/10 07:31:10;;;;;;;;;;;;;;;27.41;40.89;101759.53;5076386;28;20384;-84
2023/09/10 07:33:35;;;;;;;;;;;;;;;27.53;40.91;101762.34;5076554;28;19973;-84
2023/09/10 07:36:00;;;;;;;;;;;;;;;27.67;40.74;101770.34;5077873;28;19931;-84
2023/09/10 07:38:26;;;;;;;;;;;;;;;27.80;40.76;101771.16;5072665;28;19916;-84
2023/09/10 07:40:51;;;;;;;;;;;;;;;27.93;40.61;101773.63;5080531;28;19946;-84
2023/09/10 07:43:16;;;;;;;;;;;;;;;28.07;40.49;101778.00;5074873;28;20374;-84
2023/09/10 07:45:42;;;;;;;;;;;;;;;28.19;40.24;101769.78;5085661;28;20410;-84
2023/09/10 07:48:07;;;;;;;;;;;;;;;28.34;40.17;101765.53;5083996;28;19924;-85
2023/09/10 07:50:32;;;;;;;;;;;;;;;28.47;39.78;101765.19;5081262;28;19920;-84
2023/09/10 07:52:58;;;;;;;;;;;;;;;28.59;39.86;101770.72;5072575;28;19916;-84
2023/09/10 07:55:23;;;;;;;;;;;;;;;28.75;39.54;101768.06;5074486;28;19951;-84
2023/09/10 07:57:49;;;;;;;;;;;;;;;28.92;39.54;101771.75;5082251;28;19920;-83
2023/09/10 08:00:14;;;;;;;;;;;;;;;29.06;39.23;101770.19;5084822;28;19920;-83
2023/09/10 08:02:40;;;;;;;;;;;;;;;29.22;39.31;101769.47;5077430;28;19920;-83
2023/09/10 08:05:06;;;;;;;;;;;;;;;29.38;39.17;101771.13;5077976;28;19921;-84
2023/09/10 08:07:31;;;;;;;;;;;;;;;29.57;38.72;101767.72;5073725;28;19916;-84
2023/09/10 08:09:57;;;;;;;;;;;;;;;29.74;38.77;101764.66;5077724;28;19944;-84
2023/09/10 08:12:22;;;;;;;;;;;;;;;29.93;38.58;101765.91;5077731;28;19917;-83
2023/09/10 08:14:47;;;;;;;;;;;;;;;30.07;38.47;101769.09;5074393;28;20296;-84
2023/09/10 08:17:13;;;;;;;;;;;;;;;30.23;38.51;101766.31;5071209;28;19935;-84
2023/09/10 08:19:38;;;;;;;;;;;;;;;30.34;38.27;101757.13;5076940;28;20080;-84
2023/09/10 08:22:03;;;;;;;;;;;;;;;30.47;37.87;101762.53;5075987;28;19916;-84
2023/09/10 08:24:29;;;;;;;;;;;;;;;30.63;38.11;101760.59;5076318;28;19928;-83
2023/09/10 08:26:54;;;;;;;;;;;;;;;30.79;37.78;101760.56;5068675;28;19924;-83
2023/09/10 08:29:19;;;;;;;;;;;;;;;30.96;37.74;101763.69;5072202;28;20362;-84
2023/09/10 08:31:44;;;;;;;;;;;;;;;31.10;37.57;101760.44;5071250;28;20531;-84
2023/09/10 08:34:10;;;;;;;;;;;;;;;31.27;37.43;101762.81;5073829;28;20034;-84
2023/09/10 08:36:35;;;;;;;;;;;;;;;31.40;36.91;101765.41;5073207;28;19923;-84
2023/09/10 08:39:00;;;;;;;;;;;;;;;31.48;37.11;101756.09;5070126;28;20400;-84
2023/09/10 08:41:36;;;;;;;;;;;;;;;31.64;36.99;101754.03;5069517;28;20511;-84
2023/09/10 08:44:02;;;;;;;;;;;;;;;31.83;36.53;101756.78;5070029;28;20002;-84
2023/09/10 08:46:31;;;;;;;;;;;;;;;32.01;36.10;101751.53;5076682;28;19977;-84
2023/09/10 08:48:59;;;;;;;;;;;;;;;32.15;35.99;101749.00;5073892;28;20015;-83
2023/09/10 08:51:25;;;;;;;;;;;;;;;32.29;35.85;101745.66;5075743;28;19927;-84
2023/09/10 08:53:51;;;;;;;;;;;;;;;32.45;35.72;101753.84;5069797;28;20316;-84
2023/09/10 08:56:17;;;;;;;;;;;;;;;32.62;35.25;101752.50;5078983;28;20457;-84
2023/09/10 08:58:44;;;;;;;;;;;;;;;32.78;35.30;101750.34;5072124;28;19916;-84
2023/09/10 09:01:10;;;;;;;;;;;;;;;32.91;35.33;101750.97;5072039;28;19917;-83
2023/09/10 09:03:35;;;;;;;;;;;;;;;33.03;35.13;101750.69;5076310;28;19965;-84
2023/09/10 09:06:04;;;;;;;;;;;;;;;33.19;35.12;101742.97;5071707;28;19921;-84
2023/09/10 09:08:33;;;;;;;;;;;;;;;33.42;35.04;101740.09;5074823;28;19981;-83
2023/09/10 09:11:03;;;;;;;;;;;;;;;33.65;34.42;101737.94;5071297;28;19917;-84
2023/09/10 09:13:37;;;;;;;;;;;;;;;33.81;34.41;101739.69;5071883;28;19920;-84
2023/09/10 09:16:03;;;;;;;;;;;;;;;33.86;33.92;101737.38;5077576;28;19927;-83
2023/09/10 09:18:29;;;;;;;;;;;;;;;33.93;33.98;101745.78;5072541;28;19920;-84
2023/09/10 09:20:56;;;;;;;;;;;;;;;34.02;33.54;101737.09;5077508;28;19959;-83
2023/09/10 09:23:25;;;;;;;;;;;;;;;34.12;33.34;101739.19;5075009;28;19935;-84
2023/09/10 09:25:51;;;;;;;;;;;;;;;34.28;33.23;101730.53;5069809;28;19924;-84
2023/09/10 09:28:16;;;;;;;;;;;;;;;34.41;32.98;101729.06;5077225;28;19920;-84
2023/09/10 09:30:42;;;;;;;;;;;;;;;34.52;33.01;101729.94;5073335;28;19923;-84
2023/09/10 09:33:07;;;;;;;;;;;;;;;34.66;32.69;101732.03;5072746;28;20024;-86
2023/09/10 09:35:33;;;;;;;;;;;;;;;34.81;32.43;101732.88;5069609;28;19920;-84
2023/09/10 09:38:04;;;;;;;;;;;;;;;34.97;32.64;101730.59;5069198;28;20026;-84
2023/09/10 09:40:29;;;;;;;;;;;;;;;35.15;32.61;101730.66;5073601;28;19924;-83
2023/09/10 09:42:57;;;;;;;;;;;;;;;35.34;31.81;101718.34;5068102;28;20041;-83
2023/09/10 09:45:23;;;;;;;;;;;;;;;35.50;31.84;101718.81;5071481;28;19924;-86
2023/09/10 09:47:48;;;;;;;;;;;;;;;35.64;31.75;101716.06;5070973;28;20383;-85
2023/09/10 09:50:14;;;;;;;;;;;;;;;35.79;31.75;101721.66;5067652;28;19932;-86
2023/09/10 09:52:40;;;;;;;;;;;;;;;35.95;31.50;101720.09;5073884;28;19920;-85
2023/09/10 09:55:07;;;;;;;;;;;;;;;36.11;31.72;101721.66;5070856;28;20399;-86
2023/09/10 09:57:36;;;;;;;;;;;;;;;36.26;31.27;101720.44;5069357;28;19920;-86
2023/09/10 10:00:05;;;;;;;;;;;;;;;36.43;31.23;101716.03;5068686;28;19920;-86
2023/09/10 10:02:31;;;;;;;;;;;;;;;36.57;30.91;101716.00;5071705;28;19927;-85
2023/09/10 10:04:56;;;;;;;;;;;;;;;36.70;30.43;101714.38;5073270;28;19920;-85
2023/09/10 10:07:25;;;;;;;;;;;;;;;36.83;30.54;101712.75;5070736;28;20303;-85
2023/09/10 10:09:51;;;;;;;;;;;;;;;37.03;30.48;101713.06;5067262;28;20360;-85
2023/09/10 10:12:16;;;;;;;;;;;;;;;37.19;29.69;101712.59;5069773;28;19920;-85
2023/09/10 10:14:42;;;;;;;;;;;;;;;37.28;29.38;101703.75;5068425;28;19924;-85
2023/09/10 10:17:08;;;;;;;;;;;;;;;37.40;29.64;101712.47;5072391;28;19924;-85
2023/09/10 10:19:33;;;;;;;;;;;;;;;37.51;29.23;101701.19;5074165;28;20432;-85
2023/09/10 10:21:59;;;;;;;;;;;;;;;37.63;28.90;101697.91;5063805;28;19963;-85
2023/09/10 10:24:25;;;;;;;;;;;;;;;37.77;28.37;101694.25;5067400;28;20334;-85
2023/09/10 10:26:54;;;;;;;;;;;;;;;37.90;28.54;101695.34;5070008;28;20342;-85
2023/09/10 10:29:21;;;;;;;;;;;;;;;37.98;28.14;101691.25;5068548;28;20369;-85
2023/09/10 10:31:50;;;;;;;;;;;;;;;38.09;27.88;101691.94;5065649;28;20006;-86
2023/09/10 10:34:18;;;;;;;;;;;;;;;38.25;27.36;101685.81;5065051;28;19924;-86
2023/09/10 10:36:46;;;;;;;;;;;;;;;38.31;27.15;101688.94;5067902;28;20565;-85
2023/09/10 10:39:15;;;;;;;;;;;;;;;38.38;27.22;101686.84;5072691;28;19927;-85
2023/09/10 10:41:44;;;;;;;;;;;;;;;38.51;27.28;101689.13;5071913;28;19916;-85
2023/09/10 10:44:19;;;;;;;;;;;;;;;38.68;27.20;101685.34;5068733;28;20411;-85
2023/09/10 10:46:44;;;;;;;;;;;;;;;38.81;26.63;101680.78;5071284;28;19992;-85
2023/09/10 10:49:09;;;;;;;;;;;;;;;38.89;25.94;101679.44;5070084;28;20392;-85
2023/09/10 10:51:37;;;;;;;;;;;;;;;38.96;24.68;101682.19;5075360;28;20299;-85
2023/09/10 10:54:03;;;;;;;;;;;;;;;39.04;25.39;101676.47;5071971;28;19920;-86
2023/09/10 10:56:28;;;;;;;;;;;;;;;39.11;25.12;101681.97;5071680;28;19931;-86
2023/09/10 10:58:54;;;;;;;;;;;;;;;39.16;25.23;101676.72;5072738;28;19920;-86
2023/09/10 11:01:20;;;;;;;;;;;;;;;39.23;24.95;101679.41;5074463;28;19946;-86
2023/09/10 11:03:47;;;;;;;;;;;;;;;39.28;24.25;101667.69;5073640;28;20496;-85
2023/09/10 11:06:12;;;;;;;;;;;;;;;39.32;24.71;101670.47;5077263;28;20299;-85
2023/09/10 11:08:41;;;;;;;;;;;;;;;39.45;25.17;101676.25;5073798;28;19920;-86
2023/09/10 11:11:08;;;;;;;;;;;;;;;39.62;24.55;101674.41;5077466;28;19926;-86
2023/09/10 11:13:34;;;;;;;;;;;;;;;39.70;24.38;101675.88;5079368;28;19943;-86
2023/09/10 11:16:05;;;;;;;;;;;;;;;39.70;24.05;101678.69;5074286;28;19959;-88
2023/09/10 11:18:37;;;;;;;;;;;;;;;39.71;23.57;101675.47;5074682;28;19973;-85
2023/09/10 11:21:03;;;;;;;;;;;;;;;39.76;24.08;101677.75;5069474;28;20017;-85
2023/09/10 11:23:28;;;;;;;;;;;;;;;39.84;23.50;101682.00;5073361;28;19920;-86
2023/09/10 11:26:14;;;;;;;;;;;;;;;39.88;23.56;101665.13;5072987;28;19927;-86
2023/09/10 11:28:55;;;;;;;;;;;;;;;40.01;23.70;101662.50;5064097;28;20336;-85
2023/09/10 11:31:33;;;;;;;;;;;;;;;40.17;23.59;101659.78;5077038;28;20003;-85
2023/09/10 11:34:18;;;;;;;;;;;;;;;40.33;23.90;101668.31;5070947;28;19924;-87
2023/09/10 11:36:47;;;;;;;;;;;;;;;40.44;23.51;101666.09;5074227;28;19919;-85
2023/09/10 11:39:14;;;;;;;;;;;;;;;40.52;23.77;101665.94;5071776;28;19921;-88
2023/09/10 11:41:41;;;;;;;;;;;;;;;40.61;23.44;101658.53;5074359;28;20011;-87
2023/09/10 11:44:06;;;;;;;;;;;;;;;40.73;23.41;101660.66;5065337;28;19943;-86
2023/09/10 11:46:32;;;;;;;;;;;;;;;40.90;23.31;101663.53;5065560;28;19978;-87
2023/09/10 11:48:58;;;;;;;;;;;;;;;41.04;22.74;101669.63;5063981;28;20731;-87
2023/09/10 11:51:23;;;;;;;;;;;;;;;41.14;22.42;101662.19;5066577;28;19952;-87
2023/09/10 11:53:48;;;;;;;;;;;;;;;41.16;22.64;101658.94;5067813;28;20475;-87
2023/09/10 11:56:14;;;;;;;;;;;;;;;41.19;22.10;101658.06;5071222;28;20755;-86
2023/09/10 11:58:40;;;;;;;;;;;;;;;41.13;22.15;101654.19;5072334;28;19920;-87
2023/09/10 12:01:05;;;;;;;;;;;;;;;41.03;22.21;101661.63;5067290;28;19924;-83
2023/09/10 12:03:31;;;;;;;;;;;;;;;41.09;22.43;101659.88;5070486;28;19931;-86
2023/09/10 12:06:00;;;;;;;;;;;;;;;41.22;22.25;101652.34;5071875;28;19939;-86
2023/09/10 12:08:26;;;;;;;;;;;;;;;41.37;21.33;101652.81;5074674;28;19920;-85
2023/09/10 12:10:54;;;;;;;;;;;;;;;41.44;22.10;101651.84;5074956;28;20062;-86
2023/09/10 12:13:20;;;;;;;;;;;;;;;41.55;21.88;101646.75;5072744;28;19920;-87
2023/09/10 12:15:45;;;;;;;;;;;;;;;41.71;21.75;101648.78;5072543;28;19921;-88
2023/09/10 12:18:11;;;;;;;;;;;;;;;41.80;21.52;101646.13;5070590;28;19917;-87
2023/09/10 12:20:36;;;;;;;;;;;;;;;41.92;22.10;101636.94;5076755;28;19996;-86
2023/09/10 12:23:03;;;;;;;;;;;;;;;42.08;21.55;101644.59;5075961;28;19927;-87
2023/09/10 12:25:28;;;;;;;;;;;;;;;42.24;20.86;101625.59;5070279;28;20710;-87
2023/09/10 12:27:54;;;;;;;;;;;;;;;42.40;21.14;101627.56;5081219;28;19931;-88
2023/09/10 12:30:20;;;;;;;;;;;;;;;42.55;21.43;101627.94;5080488;28;19917;-87